Notice: Undefined index: language in /storage/ssd5/510/10272510/public_html/vam1/vam/index.php on line 25
Brand Clickair VA

 METAR AND TAF INFORMATION
METAR FOR GCRR
ADDS - METARS form results

(0153 UTC 26 September 2020)
Data provider http://aviationweather.gov/metar/data/
 
METAR text: GCRR 260130Z AUTO 35016KT 320V020 CAVOK 24/21 Q1020
Conditions at: GCRR (ARRECIFE/LANZARO, ES) observed 0130 UTC 26 September 2020
Temperature: 24.0°C (75°F)
Dewpoint: 21.0°C (70°F) [RH = 83%]
Pressure (altimeter): 30.12 inches Hg (1020.0 mb)
Winds: from the N (350 degrees) at 18 MPH (16 knots; 8.2 m/s)
Visibility: 6 or more miles (10+ km)
Ceiling: ceiling and visibility are OK
Clouds: unknown
Weather: no significant weather observed at this time

METAR text: GCRR 260100Z AUTO 35018KT CAVOK 24/21 Q1020
Conditions at: GCRR (ARRECIFE/LANZARO, ES) observed 0100 UTC 26 September 2020
Temperature: 24.0°C (75°F)
Dewpoint: 21.0°C (70°F) [RH = 83%]
Pressure (altimeter): 30.12 inches Hg (1020.0 mb)
Winds: from the N (350 degrees) at 21 MPH (18 knots; 9.3 m/s)
Visibility: 6 or more miles (10+ km)
Ceiling: ceiling and visibility are OK
Clouds: unknown
Weather: no significant weather observed at this time

Forecast for: GCRR (ARRECIFE/LANZARO, ES)
Text: TAF GCRR 252000Z 2521/2621 36017KT CAVOK TX29/2614Z TN21/2606Z
Forecast period: 2100 UTC 25 September 2020 to 2100 UTC 26 September 2020
Forecast type: FROM: standard forecast or significant change
Winds: from the N (360 degrees) at 20 MPH (17 knots; 8.7 m/s)
Visibility: 6 or more miles (10+ km)
Ceiling: unknown
Clouds: missing
Weather: no significant weather forecast for this period
Text: PROB30
Forecast period: 0100 to 0700 UTC 26 September 2020
Forecast type: TEMPORARY: The following changes expected for less than half the time period
Winds: from the N (360 degrees) at 17 MPH (15 knots; 7.7 m/s)
gusting to 29 MPH (25 knots; 12.9 m/s)
Visibility: missing
Ceiling: unknown
Clouds: missing
Weather: no significant weather forecast for this period

 AIRPORT MAP

 RUNWAY INFORMATION
Runway 03 Runway length 7874 ft Runway width 148 ft
Runway elevation 18 ft Runway displaced threshold 0 ft Runway heading 27
Runway 21 Runway length 7874 ft Runway width 148 ft
Runway elevation 47 ft Runway displaced threshold 0 ft Runway heading 207

 AIRPORT FREQUENCIES
Type APP Name CANARIAS A Frequency 129.3 MHZ
Type ATIS Name ATIS Frequency 118.625 MHZ
Type GND Name GND Frequency 121.8 MHZ
Type TWR Name TWR Frequency 120.7 MHZ

 AIRPORT NEAR NAVIGATION AIDS
Type VOR-DME Name Lanzarote Frequency 113700 KHZ
Type NDB Name Lanzarote Frequency 310 KHZ
Type VOR-DME Name Lanzarote Frequency 115200 KHZ
Type TACAN Name Lanzarote Frequency 114700 KHZ



Powered by Virtual Airlines Manager [v2.6.2]